メインページ
METAR-TAF:

METAR-TAF

空港 :

ケアンズ国際空港

ケアンズ, オーストラリア

緯度: 16-53S, 経度: 145-45E, 海抜: 3m

現時点の気象観測

当レポートは15分前の13:00(UTC)に作成
南/南東の風 11kt
気温 25°C
湿度 83%
気圧 1012 hPa
視程10km以上
高度5300ftの雲は散在している
高度8300ftの雲は散在している

METAR: YBCS 201300Z AUTO 15011KT 9999 // SCT053 SCT083 25/22 Q1012 RMK RF00.0/000.4 NOSIG

時間: 23:15 (13:15 UTC)

予報

当レポートは2時間8分前の11:07(UTC)に作成
予報は20日の 12時(UTC)から 21日の 12時(UTC)まで有効
南/南東の風 10kt
視程10km以上
高度2500ftの雲はほとんどない
高度4500ftの千切れ雲あり
弱いにわか雨
21日の 0100時(UTC)から
東/南東の風 14kt
視程10km以上
高度3000ftの雲はほとんどない
高度4500ftの雲は散在している
21日の 1000時(UTC)から
南/南東の風 10kt
視程: 5000m
高度2500ftの雲はほとんどない
高度3500ftの千切れ雲あり
高度1800ftの千切れ雲あり
弱いにわか雨, にわか雨

TAF: YBCS 201107Z 2012/2112 16010KT 9999 -SHRA FEW025 BKN045 FM210100 12014KT 9999 FEW030 SCT045 FM211000 16010KT 9999 -SHRA FEW025 BKN035 INTER 2100/2112 5000 SHRA BKN018

4,000以上の空港の気象観測と天気予報(METAR報とTAF報)

利用可能な観測所は地図上に黄色い丸と赤い丸で示す。

丸の上にカーソルを重ねると観測所名を参照できる。

次にクリックすると気象観測と天気予報を参照できる。

マップの切り替え:黒色「×」印の緑ボタンをクリックして拡大、「-」印の緑ボタンをクリックして縮小、緑色の三角印をクリックして隣りの地図に切り替え


METAR-TAF: